Terminal Aerodrome Forecast
Issued by NWS

Home | Current Version | Previous Version | Text Only | Print | Product List | Glossary On
Versions: 1 2 3 4 5 6 7 8 9 10 11 12 13 14 15
000
FTUS46 KOTX 161739
TAFCOE
TAF
KCOE 161739Z 1618/1718 18005KT P6SM -RA BKN025 OVC040
     FM162000 21010KT P6SM -SHRA BKN035 OVC050
     FM170300 16006KT P6SM BKN040 OVC060
     FM171500 13007KT P6SM -RA SCT025 BKN040 OVC050
      AMD LTD TO CLD VIS AND WIND=

USA.gov is the U.S. government's official web portal to all federal, state and local government web resources and services.